createdAt,value
2023-05-13T00:00:49.897Z,14.77
2023-05-13T00:03:17.674Z,14.80
2023-05-13T00:05:45.756Z,14.75
2023-05-13T00:08:13.242Z,14.88
2023-05-13T00:10:41.036Z,14.77
2023-05-13T00:13:08.459Z,14.84
2023-05-13T00:15:35.865Z,14.76
2023-05-13T00:18:03.653Z,14.79
2023-05-13T00:20:31.229Z,14.76
2023-05-13T00:22:58.660Z,14.84
2023-05-13T00:25:26.367Z,14.82
2023-05-13T00:27:53.742Z,14.81
2023-05-13T00:30:21.448Z,14.80
2023-05-13T00:32:49.314Z,14.83
2023-05-13T00:35:16.921Z,14.81
2023-05-13T00:37:44.950Z,14.68
2023-05-13T00:40:24.649Z,14.67
2023-05-13T00:42:52.140Z,14.74
2023-05-13T00:45:20.534Z,14.80
2023-05-13T00:47:49.505Z,14.98
2023-05-13T00:50:17.131Z,14.90
2023-05-13T00:52:45.033Z,14.80
2023-05-13T00:55:12.782Z,14.95
2023-05-13T00:57:40.525Z,14.86
2023-05-13T01:00:08.923Z,14.78
2023-05-13T01:02:48.958Z,14.71
2023-05-13T01:05:43.229Z,14.68
2023-05-13T01:08:34.843Z,14.56
2023-05-13T01:11:10.503Z,14.68
2023-05-13T01:13:43.077Z,14.53
2023-05-13T01:16:19.179Z,14.59
2023-05-13T01:18:53.668Z,14.87
2023-05-13T01:21:28.447Z,14.83
2023-05-13T01:23:56.239Z,14.80
2023-05-13T01:26:25.265Z,14.75
2023-05-13T01:28:53.419Z,14.93
2023-05-13T01:31:21.504Z,14.81
2023-05-13T01:33:50.232Z,14.66
2023-05-13T01:36:18.107Z,14.76
2023-05-13T01:38:45.499Z,14.62
2023-05-13T01:41:13.215Z,14.62
2023-05-13T01:43:40.683Z,14.61
2023-05-13T01:46:14.499Z,14.66
2023-05-13T01:48:42.253Z,14.67
2023-05-13T01:51:09.952Z,14.63
2023-05-13T01:53:37.388Z,14.63
2023-05-13T01:56:05.495Z,14.71
2023-05-13T01:58:32.867Z,14.79
2023-05-13T02:01:00.786Z,14.82
2023-05-13T02:03:28.617Z,14.74
2023-05-13T02:05:56.426Z,14.73
2023-05-13T02:08:25.400Z,14.76
2023-05-13T02:10:59.347Z,14.59
2023-05-13T02:13:28.488Z,14.67
2023-05-13T02:15:56.540Z,14.63
2023-05-13T02:18:24.546Z,14.56
2023-05-13T02:20:52.150Z,14.53
2023-05-13T02:23:19.902Z,14.64
2023-05-13T02:25:47.309Z,14.44
2023-05-13T02:28:14.963Z,14.51
2023-05-13T02:30:42.817Z,14.56
2023-05-13T02:33:10.526Z,14.53
2023-05-13T02:35:38.063Z,14.46
2023-05-13T02:38:05.937Z,14.60
2023-05-13T02:40:33.551Z,14.65
2023-05-13T02:43:01.094Z,14.68
2023-05-13T02:45:29.617Z,14.68
2023-05-13T02:47:57.776Z,14.78
2023-05-13T02:50:25.337Z,14.67
2023-05-13T02:52:53.514Z,14.62
2023-05-13T02:55:21.338Z,14.53
2023-05-13T02:57:48.752Z,14.70
2023-05-13T03:00:16.698Z,14.61
2023-05-13T03:02:44.238Z,14.49
2023-05-13T03:05:11.715Z,14.63
2023-05-13T03:07:39.482Z,14.52
2023-05-13T03:10:07.394Z,14.58
2023-05-13T03:12:35.062Z,14.53
2023-05-13T03:15:04.293Z,14.46
2023-05-13T03:17:33.400Z,14.56
2023-05-13T03:20:00.898Z,14.48
2023-05-13T03:22:28.920Z,14.33
2023-05-13T03:24:58.303Z,14.32
2023-05-13T03:27:26.222Z,14.40
2023-05-13T03:29:53.904Z,14.34
2023-05-13T03:32:22.869Z,14.41
2023-05-13T03:34:50.418Z,14.50
2023-05-13T03:37:18.096Z,14.57
2023-05-13T03:39:45.479Z,14.54
2023-05-13T03:42:13.266Z,14.51
2023-05-13T03:44:40.982Z,14.57
2023-05-13T03:47:09.093Z,14.64
2023-05-13T03:49:36.508Z,14.43
2023-05-13T03:52:04.583Z,14.41
2023-05-13T03:54:32.001Z,14.48
2023-05-13T03:56:59.381Z,14.53
2023-05-13T03:59:27.138Z,14.42
2023-05-13T04:01:54.591Z,14.48
2023-05-13T04:04:22.420Z,14.46
2023-05-13T04:06:49.893Z,14.44
2023-05-13T04:09:17.345Z,14.43
2023-05-13T04:11:45.092Z,14.33
2023-05-13T04:14:12.451Z,14.08
2023-05-13T04:16:39.978Z,14.16
2023-05-13T04:19:07.746Z,14.02
2023-05-13T04:21:35.225Z,14.22
2023-05-13T04:24:02.731Z,14.17
2023-05-13T04:26:30.354Z,14.32
2023-05-13T04:28:57.798Z,14.15
2023-05-13T04:31:25.998Z,14.31
2023-05-13T04:33:53.824Z,14.21
2023-05-13T04:36:21.754Z,14.29
2023-05-13T04:38:49.242Z,14.16
2023-05-13T04:41:17.405Z,14.25
2023-05-13T04:43:44.934Z,14.23
2023-05-13T04:46:12.753Z,14.30
2023-05-13T04:48:40.486Z,14.18
2023-05-13T04:51:08.578Z,14.17
2023-05-13T04:53:36.502Z,14.44
2023-05-13T04:56:05.305Z,14.39
2023-05-13T04:58:32.691Z,14.42
2023-05-13T05:01:00.165Z,14.41
2023-05-13T05:03:28.321Z,14.50
2023-05-13T05:05:55.799Z,14.56
2023-05-13T05:08:23.963Z,14.72
2023-05-13T05:10:52.006Z,14.47
2023-05-13T05:13:19.848Z,14.46
2023-05-13T05:15:47.296Z,14.44
2023-05-13T05:18:15.374Z,14.29
2023-05-13T05:20:43.480Z,14.24
2023-05-13T05:23:11.392Z,14.35
2023-05-13T05:25:39.512Z,14.32
2023-05-13T05:28:09.318Z,14.36
2023-05-13T05:30:39.733Z,14.52
2023-05-13T05:33:08.609Z,14.44
2023-05-13T05:35:38.253Z,14.64
2023-05-13T05:38:07.591Z,14.53
2023-05-13T05:40:41.068Z,14.46
2023-05-13T05:43:11.118Z,14.58
2023-05-13T05:45:39.648Z,14.63
2023-05-13T05:48:08.123Z,14.50
2023-05-13T05:50:36.471Z,14.33
2023-05-13T05:53:06.910Z,14.24
2023-05-13T05:55:34.846Z,14.35
2023-05-13T05:58:06.480Z,14.42
2023-05-13T06:00:34.698Z,14.43
2023-05-13T06:03:02.582Z,14.26
2023-05-13T06:05:30.122Z,14.43
2023-05-13T06:07:57.521Z,14.44
2023-05-13T06:10:25.307Z,14.09
2023-05-13T06:12:53.433Z,14.20
2023-05-13T06:15:20.938Z,14.49
2023-05-13T06:17:48.655Z,14.31
2023-05-13T06:20:16.281Z,14.33
2023-05-13T06:22:43.794Z,14.38
2023-05-13T06:25:11.501Z,14.52
2023-05-13T06:27:40.820Z,14.52
2023-05-13T06:30:08.501Z,14.56
2023-05-13T06:32:38.132Z,14.72
2023-05-13T06:35:07.565Z,14.86
2023-05-13T06:37:35.455Z,14.93
2023-05-13T06:40:04.278Z,14.87
2023-05-13T06:42:32.606Z,14.73
2023-05-13T06:45:00.239Z,14.93
2023-05-13T06:47:28.170Z,14.92
2023-05-13T06:49:55.754Z,14.81
2023-05-13T06:52:23.179Z,14.82
2023-05-13T06:54:51.488Z,14.76
2023-05-13T06:57:18.924Z,14.79
2023-05-13T06:59:46.309Z,14.97
2023-05-13T07:02:14.334Z,15.05
2023-05-13T07:04:41.728Z,14.83
2023-05-13T07:07:09.086Z,14.99
2023-05-13T07:09:36.705Z,14.99
2023-05-13T07:12:04.439Z,15.00
2023-05-13T07:14:31.825Z,15.06
2023-05-13T07:16:59.640Z,15.02
2023-05-13T07:19:27.084Z,15.04
2023-05-13T07:21:54.612Z,15.30
2023-05-13T07:24:22.469Z,15.46
2023-05-13T07:26:49.936Z,15.66
2023-05-13T07:29:17.797Z,15.64
2023-05-13T07:31:45.520Z,15.69
2023-05-13T07:34:12.942Z,15.65
2023-05-13T07:36:40.711Z,15.57
2023-05-13T07:39:08.728Z,15.65
2023-05-13T07:41:36.829Z,15.68
2023-05-13T07:44:05.806Z,15.75
2023-05-13T07:46:33.607Z,15.79
2023-05-13T07:49:01.105Z,15.92
2023-05-13T07:51:29.459Z,15.72
2023-05-13T07:53:57.224Z,15.64
2023-05-13T07:56:24.657Z,15.70
2023-05-13T07:58:52.547Z,15.82
2023-05-13T08:01:20.295Z,16.11
2023-05-13T08:03:48.170Z,16.08
2023-05-13T08:06:15.711Z,16.10
2023-05-13T08:08:43.185Z,15.99
2023-05-13T08:11:11.083Z,16.32
2023-05-13T08:13:38.727Z,16.23
2023-05-13T08:16:07.334Z,16.45
2023-05-13T08:18:35.133Z,16.44
2023-05-13T08:21:02.637Z,16.66
2023-05-13T08:23:43.544Z,16.72
2023-05-13T08:26:13.408Z,16.68
2023-05-13T08:28:42.279Z,16.96
2023-05-13T08:31:13.670Z,16.82
2023-05-13T08:33:42.691Z,16.83
2023-05-13T08:36:10.181Z,16.81
2023-05-13T08:38:37.700Z,16.66
2023-05-13T08:41:08.415Z,16.51
2023-05-13T08:43:38.287Z,16.37
2023-05-13T08:46:10.996Z,16.18
2023-05-13T08:48:39.627Z,16.05
2023-05-13T08:51:10.092Z,16.53
2023-05-13T08:53:39.582Z,16.58
2023-05-13T08:56:08.999Z,16.63
2023-05-13T08:58:36.480Z,16.76
2023-05-13T09:01:04.365Z,16.81
2023-05-13T09:03:32.642Z,17.03
2023-05-13T09:06:03.464Z,17.03
2023-05-13T09:08:32.642Z,17.23
2023-05-13T09:11:00.886Z,17.10
2023-05-13T09:13:28.336Z,17.32
2023-05-13T09:15:55.961Z,17.15
2023-05-13T09:18:30.117Z,16.95
2023-05-13T09:20:57.725Z,17.16
2023-05-13T09:23:25.448Z,17.36
2023-05-13T09:25:52.830Z,16.97
2023-05-13T09:28:20.242Z,17.11
2023-05-13T09:30:54.716Z,17.23
2023-05-13T09:33:22.626Z,17.22
2023-05-13T09:35:53.747Z,17.15
2023-05-13T09:38:28.884Z,17.28
2023-05-13T09:40:58.500Z,17.50
2023-05-13T09:43:33.043Z,17.59
2023-05-13T09:46:02.081Z,17.34
2023-05-13T09:48:32.089Z,17.42
2023-05-13T09:50:59.707Z,17.41
2023-05-13T09:53:28.578Z,17.48
2023-05-13T09:55:57.317Z,17.67
2023-05-13T09:58:28.340Z,17.70
2023-05-13T10:00:56.873Z,18.02
2023-05-13T10:03:24.958Z,18.37
2023-05-13T10:05:53.581Z,18.18
2023-05-13T10:08:22.250Z,17.95
2023-05-13T10:10:50.589Z,18.13
2023-05-13T10:13:21.162Z,18.14
2023-05-13T10:15:53.332Z,18.32
2023-05-13T10:18:22.642Z,18.13
2023-05-13T10:20:53.416Z,18.19
2023-05-13T10:23:24.898Z,18.09
2023-05-13T10:25:54.025Z,18.04
2023-05-13T10:28:22.280Z,17.85
2023-05-13T10:30:52.513Z,17.81
2023-05-13T10:33:20.444Z,17.81
2023-05-13T10:36:07.968Z,17.70
2023-05-13T10:38:53.522Z,17.77
2023-05-13T10:41:34.959Z,17.74
2023-05-13T10:44:03.711Z,17.70
2023-05-13T10:46:34.455Z,17.62
2023-05-13T10:49:05.033Z,17.52
2023-05-13T10:51:32.800Z,17.50
2023-05-13T10:54:00.287Z,17.40
2023-05-13T10:56:28.483Z,17.36
2023-05-13T10:59:05.915Z,17.48
2023-05-13T11:01:43.926Z,17.44
2023-05-13T11:04:19.986Z,17.67
2023-05-13T11:06:49.195Z,17.71
2023-05-13T11:09:22.916Z,17.65
2023-05-13T11:11:54.145Z,17.62
2023-05-13T11:14:22.843Z,17.54
2023-05-13T11:16:54.515Z,17.67
2023-05-13T11:19:33.021Z,17.75
2023-05-13T11:22:11.348Z,17.95
2023-05-13T11:24:40.048Z,17.73
2023-05-13T11:27:17.446Z,17.68
2023-05-13T11:29:52.522Z,17.63
2023-05-13T11:32:52.508Z,17.92
2023-05-13T11:35:27.849Z,17.84
2023-05-13T11:37:59.160Z,17.84
2023-05-13T11:40:30.966Z,17.82
2023-05-13T11:42:58.944Z,17.76
2023-05-13T11:45:27.162Z,17.68
2023-05-13T11:47:58.093Z,17.79
2023-05-13T11:50:30.419Z,17.49
2023-05-13T11:53:01.619Z,17.64
2023-05-13T11:55:29.957Z,17.63
2023-05-13T11:57:58.874Z,17.41
2023-05-13T12:00:31.038Z,17.56
2023-05-13T12:02:58.952Z,17.42
2023-05-13T12:05:27.067Z,17.55
2023-05-13T12:07:58.386Z,17.53
2023-05-13T12:10:26.608Z,17.59
2023-05-13T12:12:54.482Z,17.73
2023-05-13T12:15:24.475Z,17.67
2023-05-13T12:17:53.355Z,17.88
2023-05-13T12:20:24.235Z,17.91
2023-05-13T12:22:54.522Z,18.19
2023-05-13T12:25:43.567Z,17.97
2023-05-13T12:28:17.282Z,18.12
2023-05-13T12:30:51.842Z,18.22
2023-05-13T12:33:24.621Z,18.19
2023-05-13T12:35:53.657Z,18.27
2023-05-13T12:38:24.045Z,18.25
2023-05-13T12:40:52.442Z,18.15
2023-05-13T12:43:20.467Z,18.03
2023-05-13T12:45:53.743Z,18.02
2023-05-13T12:48:24.003Z,17.85
2023-05-13T12:50:51.831Z,17.65
2023-05-13T12:53:22.456Z,17.85
2023-05-13T12:55:49.900Z,18.01
2023-05-13T12:58:17.596Z,17.88
2023-05-13T13:00:45.906Z,17.89
2023-05-13T13:03:13.516Z,17.80
2023-05-13T13:05:41.437Z,17.70
2023-05-13T13:08:08.832Z,17.75
2023-05-13T13:10:36.231Z,17.81
2023-05-13T13:13:03.988Z,17.73
2023-05-13T13:15:31.497Z,18.07
2023-05-13T13:17:59.103Z,18.20
2023-05-13T13:20:26.918Z,18.32
2023-05-13T13:22:54.847Z,18.34
2023-05-13T13:25:22.581Z,18.48
2023-05-13T13:27:50.788Z,18.34
2023-05-13T13:30:18.256Z,18.51
2023-05-13T13:32:45.790Z,18.36
2023-05-13T13:35:13.552Z,18.45
2023-05-13T13:37:40.997Z,18.55
2023-05-13T13:40:09.023Z,18.75
2023-05-13T13:42:44.055Z,18.68
2023-05-13T13:45:13.769Z,18.34
2023-05-13T13:47:41.882Z,18.35
2023-05-13T13:50:10.014Z,18.51
2023-05-13T13:52:37.451Z,18.36
2023-05-13T13:55:05.816Z,18.45
2023-05-13T13:57:33.206Z,18.30
2023-05-13T14:00:00.800Z,18.57
2023-05-13T14:02:31.212Z,18.34
2023-05-13T14:05:01.964Z,18.43
2023-05-13T14:07:29.466Z,18.31
2023-05-13T14:09:58.005Z,18.27
2023-05-13T14:12:27.260Z,18.36
2023-05-13T14:14:54.694Z,18.12
2023-05-13T14:17:22.145Z,18.27
2023-05-13T14:19:51.828Z,18.22
2023-05-13T14:22:19.270Z,18.24
2023-05-13T14:24:46.668Z,18.09
2023-05-13T14:27:14.533Z,18.15
2023-05-13T14:29:41.943Z,18.12
2023-05-13T14:32:09.326Z,17.96
2023-05-13T14:34:37.163Z,17.85
2023-05-13T14:37:05.116Z,17.90
2023-05-13T14:39:32.538Z,17.95
2023-05-13T14:42:00.896Z,17.97
2023-05-13T14:44:28.300Z,17.74
2023-05-13T14:46:56.041Z,17.85
2023-05-13T14:49:23.805Z,17.89
2023-05-13T14:51:51.241Z,17.78
2023-05-13T14:54:18.737Z,17.89
2023-05-13T14:56:46.536Z,18.19
2023-05-13T14:59:14.040Z,18.18
2023-05-13T15:01:41.416Z,18.41
2023-05-13T15:04:09.152Z,18.21
2023-05-13T15:06:37.811Z,18.33
2023-05-13T15:09:06.032Z,18.48
2023-05-13T15:11:42.173Z,18.24
2023-05-13T15:14:11.819Z,18.18
2023-05-13T15:16:39.607Z,18.12
2023-05-13T15:19:07.703Z,18.18
2023-05-13T15:21:35.281Z,18.03
2023-05-13T15:24:03.129Z,18.19
2023-05-13T15:26:30.623Z,18.29
2023-05-13T15:28:58.193Z,18.05
2023-05-13T15:31:26.079Z,17.87
2023-05-13T15:33:53.673Z,17.98
2023-05-13T15:36:21.217Z,17.99
2023-05-13T15:38:51.741Z,18.32
2023-05-13T15:41:19.140Z,18.08
2023-05-13T15:43:46.678Z,18.06
2023-05-13T15:46:14.572Z,17.98
2023-05-13T15:48:42.029Z,18.18
2023-05-13T15:51:12.160Z,18.21
2023-05-13T15:53:39.865Z,18.12
2023-05-13T15:56:07.437Z,18.18
2023-05-13T15:58:34.847Z,18.45
2023-05-13T16:01:02.568Z,18.46
2023-05-13T16:03:30.308Z,18.20
2023-05-13T16:05:57.764Z,18.34
2023-05-13T16:08:25.274Z,17.96
2023-05-13T16:10:55.177Z,17.84
2023-05-13T16:13:22.654Z,18.06
2023-05-13T16:15:50.113Z,18.27
2023-05-13T16:18:17.889Z,18.28
2023-05-13T16:20:45.358Z,18.44
2023-05-13T16:23:12.756Z,18.30
2023-05-13T16:25:41.825Z,18.27
2023-05-13T16:28:10.919Z,18.24
2023-05-13T16:30:39.453Z,18.05
2023-05-13T16:33:09.473Z,18.00
2023-05-13T16:35:37.118Z,18.02
2023-05-13T16:38:04.590Z,18.00
2023-05-13T16:40:32.350Z,17.74
2023-05-13T16:43:03.269Z,17.90
2023-05-13T16:45:34.110Z,17.96
2023-05-13T16:48:04.052Z,17.89
2023-05-13T16:50:31.786Z,17.82
2023-05-13T16:53:01.566Z,17.96
2023-05-13T16:55:29.044Z,17.83
2023-05-13T16:57:56.765Z,18.06
2023-05-13T17:00:27.347Z,18.06
2023-05-13T17:02:57.672Z,17.96
2023-05-13T17:05:25.363Z,17.91
2023-05-13T17:07:52.788Z,17.92
2023-05-13T17:10:20.435Z,18.16
2023-05-13T17:12:48.245Z,18.11
2023-05-13T17:15:15.709Z,18.21
2023-05-13T17:17:43.238Z,18.09
2023-05-13T17:20:11.486Z,18.34
2023-05-13T17:22:38.885Z,18.32
2023-05-13T17:25:08.815Z,18.45
2023-05-13T17:27:38.636Z,18.40
2023-05-13T17:30:06.772Z,18.31
2023-05-13T17:32:35.052Z,18.22
2023-05-13T17:35:05.297Z,18.07
2023-05-13T17:37:32.785Z,17.95
2023-05-13T17:40:02.552Z,17.78
2023-05-13T17:42:31.325Z,17.82
2023-05-13T17:44:59.086Z,17.64
2023-05-13T17:47:29.940Z,17.55
2023-05-13T17:49:57.708Z,17.73
2023-05-13T17:52:25.347Z,17.58
2023-05-13T17:54:52.883Z,17.41
2023-05-13T17:57:21.245Z,17.25
2023-05-13T17:59:48.675Z,17.23
2023-05-13T18:02:16.242Z,17.10
2023-05-13T18:04:43.938Z,17.10
2023-05-13T18:07:13.690Z,17.11
2023-05-13T18:09:41.095Z,17.13
2023-05-13T18:12:08.832Z,17.14
2023-05-13T18:14:36.249Z,17.18
2023-05-13T18:17:04.331Z,17.08
2023-05-13T18:19:32.064Z,16.85
2023-05-13T18:21:59.778Z,16.90
2023-05-13T18:24:27.225Z,16.96
2023-05-13T18:26:54.866Z,16.98
2023-05-13T18:29:22.390Z,17.05
2023-05-13T18:31:52.300Z,17.09
2023-05-13T18:34:20.065Z,17.05
2023-05-13T18:36:47.542Z,17.02
2023-05-13T18:39:15.564Z,17.15
2023-05-13T18:41:43.306Z,17.00
2023-05-13T18:44:10.931Z,16.89
2023-05-13T18:46:38.452Z,16.94
2023-05-13T18:49:06.351Z,17.05
2023-05-13T18:51:34.207Z,16.91
2023-05-13T18:54:01.707Z,16.95
2023-05-13T18:56:29.530Z,16.94
2023-05-13T18:58:57.057Z,16.83
2023-05-13T19:01:27.675Z,16.63
2023-05-13T19:03:58.165Z,16.67
2023-05-13T19:06:25.722Z,16.74
2023-05-13T19:08:53.130Z,16.81
2023-05-13T19:11:23.152Z,16.71
2023-05-13T19:13:50.645Z,16.81
2023-05-13T19:16:18.892Z,16.82
2023-05-13T19:18:46.588Z,16.86
2023-05-13T19:21:13.987Z,16.94
2023-05-13T19:23:41.429Z,16.71
2023-05-13T19:26:09.205Z,16.75
2023-05-13T19:28:37.952Z,16.82
2023-05-13T19:31:06.028Z,16.81
2023-05-13T19:33:33.792Z,16.66
2023-05-13T19:36:05.322Z,16.72
2023-05-13T19:38:33.912Z,16.64
2023-05-13T19:41:01.732Z,16.58
2023-05-13T19:43:29.150Z,16.49
2023-05-13T19:45:57.561Z,16.55
2023-05-13T19:48:29.828Z,16.58
2023-05-13T19:50:58.347Z,16.48
2023-05-13T19:53:26.567Z,16.47
2023-05-13T19:55:55.394Z,16.60
2023-05-13T19:58:22.833Z,16.44
2023-05-13T20:00:50.530Z,16.27
2023-05-13T20:03:18.336Z,16.36
2023-05-13T20:05:48.122Z,16.43
2023-05-13T20:08:15.520Z,16.35
2023-05-13T20:10:43.217Z,16.28
2023-05-13T20:13:13.496Z,16.34
2023-05-13T20:15:42.172Z,16.30
2023-05-13T20:18:09.923Z,16.23
2023-05-13T20:20:37.422Z,16.24
2023-05-13T20:23:04.872Z,16.18
2023-05-13T20:25:32.606Z,16.27
2023-05-13T20:27:59.983Z,16.37
2023-05-13T20:30:27.383Z,16.25
2023-05-13T20:32:55.115Z,16.17
2023-05-13T20:35:22.592Z,16.29
2023-05-13T20:37:49.989Z,16.25
2023-05-13T20:40:17.697Z,16.24
2023-05-13T20:42:45.294Z,15.95
2023-05-13T20:45:12.736Z,15.96
2023-05-13T20:47:40.512Z,15.96
2023-05-13T20:50:08.319Z,15.89
2023-05-13T20:52:35.966Z,15.94
2023-05-13T20:55:04.242Z,15.90
2023-05-13T20:57:31.651Z,16.00
2023-05-13T20:59:59.021Z,15.84
2023-05-13T21:02:26.699Z,15.80
2023-05-13T21:04:54.152Z,15.77
2023-05-13T21:07:21.520Z,15.89
2023-05-13T21:09:49.262Z,15.88
2023-05-13T21:12:19.666Z,15.80
2023-05-13T21:14:47.029Z,15.82
2023-05-13T21:17:14.722Z,15.91
2023-05-13T21:19:42.093Z,15.90
2023-05-13T21:22:09.452Z,15.74
2023-05-13T21:24:37.079Z,15.73
2023-05-13T21:27:04.701Z,15.88
2023-05-13T21:29:32.159Z,15.81
2023-05-13T21:31:59.809Z,15.82
2023-05-13T21:34:27.212Z,15.82
2023-05-13T21:36:54.594Z,15.80
2023-05-13T21:39:22.255Z,15.85
2023-05-13T21:41:49.673Z,15.86
2023-05-13T21:44:17.080Z,15.86
2023-05-13T21:46:44.766Z,15.97
2023-05-13T21:49:12.239Z,15.94
2023-05-13T21:51:39.974Z,15.93
2023-05-13T21:54:07.683Z,16.01
2023-05-13T21:56:35.094Z,15.91
2023-05-13T21:59:02.561Z,15.79
2023-05-13T22:01:30.402Z,15.87
2023-05-13T22:03:58.113Z,15.87
2023-05-13T22:06:25.553Z,15.82
2023-05-13T22:08:52.957Z,15.67
2023-05-13T22:11:21.016Z,15.48
2023-05-13T22:13:48.577Z,15.52
2023-05-13T22:16:16.119Z,15.58
2023-05-13T22:18:44.057Z,15.63
2023-05-13T22:21:11.608Z,15.74
2023-05-13T22:23:39.022Z,15.72
2023-05-13T22:26:06.703Z,15.55
2023-05-13T22:28:34.129Z,15.54
2023-05-13T22:31:01.586Z,15.54
2023-05-13T22:33:29.348Z,15.54
2023-05-13T22:35:56.792Z,15.67
2023-05-13T22:38:24.435Z,15.59
2023-05-13T22:40:52.088Z,15.45
2023-05-13T22:43:19.523Z,15.47
2023-05-13T22:45:46.952Z,15.50
2023-05-13T22:48:15.088Z,15.46
2023-05-13T22:50:42.497Z,15.55
2023-05-13T22:53:10.294Z,15.52
2023-05-13T22:55:38.269Z,15.54
2023-05-13T22:58:05.781Z,15.45
2023-05-13T23:00:33.191Z,15.58
2023-05-13T23:03:01.023Z,15.47
2023-05-13T23:05:28.765Z,15.36
2023-05-13T23:07:56.173Z,15.43
2023-05-13T23:10:23.970Z,15.53
2023-05-13T23:12:51.494Z,15.54
2023-05-13T23:15:19.115Z,15.57
2023-05-13T23:17:46.996Z,15.58
2023-05-13T23:20:14.450Z,15.52
2023-05-13T23:22:41.904Z,15.66
2023-05-13T23:25:09.951Z,15.69
2023-05-13T23:27:37.353Z,15.65
2023-05-13T23:30:05.526Z,15.56
2023-05-13T23:32:33.202Z,15.73
2023-05-13T23:35:00.585Z,15.54
2023-05-13T23:37:28.025Z,15.70
2023-05-13T23:39:55.907Z,15.70
2023-05-13T23:42:23.322Z,15.71
2023-05-13T23:44:50.718Z,15.74
2023-05-13T23:47:18.469Z,15.50
2023-05-13T23:49:45.882Z,15.53
2023-05-13T23:52:13.313Z,15.55
2023-05-13T23:54:41.014Z,15.63
2023-05-13T23:57:08.497Z,15.48
2023-05-13T23:59:36.094Z,15.51
